createdAt,value
2022-10-14T00:00:13.795Z,3.70
2022-10-14T00:02:42.000Z,3.87
2022-10-14T00:05:10.547Z,3.30
2022-10-14T00:07:38.868Z,3.87
2022-10-14T00:10:07.922Z,3.37
2022-10-14T00:12:36.168Z,3.90
2022-10-14T00:15:04.558Z,3.53
2022-10-14T00:17:34.094Z,3.67
2022-10-14T00:20:02.265Z,3.60
2022-10-14T00:22:30.442Z,4.17
2022-10-14T00:24:58.966Z,3.73
2022-10-14T00:27:27.183Z,3.40
2022-10-14T00:29:55.386Z,3.20
2022-10-14T00:32:23.577Z,3.50
2022-10-14T00:34:53.116Z,4.00
2022-10-14T00:37:21.447Z,3.87
2022-10-14T00:39:52.372Z,3.70
2022-10-14T00:42:24.352Z,4.30
2022-10-14T00:45:03.854Z,3.80
2022-10-14T00:47:32.285Z,3.60
2022-10-14T00:50:02.613Z,4.10
2022-10-14T00:52:31.283Z,4.00
2022-10-14T00:55:02.375Z,4.00
2022-10-14T00:57:31.412Z,3.70
2022-10-14T01:00:03.071Z,3.70
2022-10-14T01:02:31.508Z,3.40
2022-10-14T01:04:59.843Z,3.30
2022-10-14T01:07:33.573Z,3.30
2022-10-14T01:10:04.850Z,2.93
2022-10-14T01:12:36.026Z,3.20
2022-10-14T01:15:06.277Z,3.30
2022-10-14T01:17:38.776Z,3.00
2022-10-14T01:20:17.278Z,3.10
2022-10-14T01:22:49.360Z,3.00
2022-10-14T01:25:21.502Z,3.50
2022-10-14T01:28:05.089Z,2.93
2022-10-14T01:30:35.869Z,2.80
2022-10-14T01:33:10.762Z,3.03
2022-10-14T01:35:45.614Z,2.80
2022-10-14T01:38:14.945Z,3.03
2022-10-14T01:40:49.232Z,2.77
2022-10-14T01:43:18.318Z,2.33
2022-10-14T01:45:49.300Z,2.43
2022-10-14T01:48:19.241Z,3.53
2022-10-14T01:50:48.849Z,2.30
2022-10-14T01:53:19.459Z,2.80
2022-10-14T01:55:48.929Z,2.60
2022-10-14T01:58:18.449Z,3.03
2022-10-14T02:01:01.554Z,2.37
2022-10-14T02:03:39.956Z,2.17
2022-10-14T02:06:10.821Z,2.17
2022-10-14T02:08:45.549Z,2.43
2022-10-14T02:11:15.688Z,3.10
2022-10-14T02:14:08.940Z,2.70
2022-10-14T02:16:39.559Z,2.70
2022-10-14T02:19:17.491Z,3.00
2022-10-14T02:21:47.077Z,2.40
2022-10-14T02:24:17.810Z,2.47
2022-10-14T02:26:46.692Z,2.50
2022-10-14T02:29:14.893Z,2.63
2022-10-14T02:31:44.102Z,2.73
2022-10-14T02:34:14.538Z,2.77
2022-10-14T02:36:43.558Z,3.20
2022-10-14T02:39:13.564Z,3.03
2022-10-14T02:41:41.765Z,2.70
2022-10-14T02:44:12.453Z,2.50
2022-10-14T02:46:41.436Z,2.60
2022-10-14T02:49:09.653Z,2.47
2022-10-14T02:51:39.304Z,2.67
2022-10-14T02:54:07.737Z,2.30
2022-10-14T02:56:35.915Z,2.77
2022-10-14T02:59:04.138Z,2.40
2022-10-14T03:01:36.595Z,3.17
2022-10-14T03:04:05.877Z,2.90
2022-10-14T03:06:34.062Z,2.57
2022-10-14T03:09:03.632Z,2.30
2022-10-14T03:11:31.844Z,2.77
2022-10-14T03:14:00.018Z,2.60
2022-10-14T03:16:28.189Z,2.60
2022-10-14T03:18:56.633Z,2.37
2022-10-14T03:21:24.789Z,2.03
2022-10-14T03:23:53.031Z,3.00
2022-10-14T03:26:23.766Z,2.63
2022-10-14T03:28:51.982Z,2.70
2022-10-14T03:31:20.480Z,2.90
2022-10-14T03:33:48.693Z,2.63
2022-10-14T03:36:16.875Z,3.40
2022-10-14T03:38:45.104Z,3.37
2022-10-14T03:41:13.312Z,4.50
2022-10-14T03:43:42.863Z,3.27
2022-10-14T03:46:11.076Z,4.00
2022-10-14T03:48:39.250Z,4.50
2022-10-14T03:51:07.405Z,4.50
2022-10-14T03:53:35.653Z,4.43
2022-10-14T03:56:03.801Z,4.00
2022-10-14T03:58:32.007Z,5.10
2022-10-14T04:01:01.591Z,4.63
2022-10-14T04:03:29.797Z,4.93
2022-10-14T04:05:57.961Z,5.17
2022-10-14T04:08:26.162Z,5.10
2022-10-14T04:10:54.751Z,5.40
2022-10-14T04:13:23.140Z,5.33
2022-10-14T04:15:51.303Z,5.23
2022-10-14T04:18:20.865Z,6.30
2022-10-14T04:20:49.050Z,5.50
2022-10-14T04:23:17.279Z,5.40
2022-10-14T04:25:45.471Z,5.27
2022-10-14T04:28:13.784Z,5.80
2022-10-14T04:30:42.278Z,6.63
2022-10-14T04:33:10.476Z,6.83
2022-10-14T04:35:40.013Z,5.70
2022-10-14T04:38:08.336Z,5.30
2022-10-14T04:40:36.480Z,5.87
2022-10-14T04:43:06.677Z,6.03
2022-10-14T04:45:34.859Z,5.60
2022-10-14T04:48:03.217Z,5.10
2022-10-14T04:50:31.529Z,5.83
2022-10-14T04:53:01.381Z,6.10
2022-10-14T04:55:29.568Z,4.97
2022-10-14T04:57:57.749Z,5.70
2022-10-14T05:00:25.900Z,5.93
2022-10-14T05:02:54.060Z,5.30
2022-10-14T05:05:22.271Z,6.63
2022-10-14T05:07:50.478Z,5.10
2022-10-14T05:10:20.156Z,4.70
2022-10-14T05:12:48.394Z,4.70
2022-10-14T05:15:16.700Z,3.70
2022-10-14T05:17:45.497Z,3.93
2022-10-14T05:20:13.993Z,3.77
2022-10-14T05:22:42.161Z,3.63
2022-10-14T05:25:10.515Z,3.70
2022-10-14T05:27:40.042Z,3.50
2022-10-14T05:30:08.809Z,3.17
2022-10-14T05:32:36.978Z,3.80
2022-10-14T05:35:05.932Z,2.50
2022-10-14T05:37:34.469Z,2.70
2022-10-14T05:40:02.652Z,2.87
2022-10-14T05:42:30.883Z,2.93
2022-10-14T05:45:00.424Z,2.80
2022-10-14T05:47:28.579Z,2.80
2022-10-14T05:49:56.785Z,3.07
2022-10-14T05:52:25.293Z,2.80
2022-10-14T05:54:53.500Z,2.70
2022-10-14T05:57:21.692Z,2.87
2022-10-14T05:59:49.890Z,2.13
2022-10-14T06:02:19.724Z,3.03
2022-10-14T06:04:48.416Z,2.43
2022-10-14T06:07:16.596Z,2.87
2022-10-14T06:09:44.877Z,3.00
2022-10-14T06:12:13.296Z,2.40
2022-10-14T06:14:41.484Z,3.73
2022-10-14T06:17:09.713Z,3.33
2022-10-14T06:19:39.241Z,2.83
2022-10-14T06:22:07.434Z,3.20
2022-10-14T06:24:35.781Z,3.80
2022-10-14T06:27:03.942Z,2.50
2022-10-14T06:29:37.772Z,2.60
2022-10-14T06:32:06.513Z,2.77
2022-10-14T06:34:34.809Z,3.23
2022-10-14T06:37:04.544Z,2.83
2022-10-14T06:39:32.812Z,2.80
2022-10-14T06:42:03.799Z,2.33
2022-10-14T06:44:31.973Z,2.93
2022-10-14T06:47:00.158Z,2.70
2022-10-14T06:49:28.476Z,2.90
2022-10-14T06:51:56.626Z,2.60
2022-10-14T06:54:26.168Z,2.63
2022-10-14T06:56:54.324Z,2.80
2022-10-14T06:59:22.723Z,2.80
2022-10-14T07:01:51.117Z,2.17
2022-10-14T07:04:25.510Z,2.47
2022-10-14T07:06:55.093Z,2.70
2022-10-14T07:09:23.289Z,3.00
2022-10-14T07:11:52.884Z,2.93
2022-10-14T07:14:21.255Z,2.57
2022-10-14T07:16:49.465Z,2.80
2022-10-14T07:19:17.674Z,3.60
2022-10-14T07:21:46.596Z,2.87
2022-10-14T07:24:14.949Z,2.93
2022-10-14T07:26:43.165Z,3.10
2022-10-14T07:29:12.700Z,3.87
2022-10-14T07:31:41.380Z,2.30
2022-10-14T07:34:09.579Z,3.33
2022-10-14T07:36:37.737Z,3.83
2022-10-14T07:39:06.675Z,4.23
2022-10-14T07:41:35.139Z,2.60
2022-10-14T07:44:06.224Z,3.50
2022-10-14T07:46:36.914Z,3.60
2022-10-14T07:49:06.684Z,3.50
2022-10-14T07:51:35.418Z,4.13
2022-10-14T07:54:04.352Z,4.10
2022-10-14T07:56:32.537Z,3.67
2022-10-14T07:59:00.753Z,2.47
2022-10-14T08:01:29.038Z,3.90
2022-10-14T08:03:58.674Z,3.90
2022-10-14T08:06:26.891Z,4.60
2022-10-14T08:08:55.426Z,4.17
2022-10-14T08:11:24.686Z,3.53
2022-10-14T08:13:52.998Z,4.70
2022-10-14T08:16:22.114Z,4.13
2022-10-14T08:18:50.685Z,4.93
2022-10-14T08:21:21.013Z,3.00
2022-10-14T08:23:49.208Z,4.20
2022-10-14T08:26:20.350Z,4.80
2022-10-14T08:28:48.785Z,5.00
2022-10-14T08:31:17.901Z,4.33
2022-10-14T08:33:46.239Z,4.73
2022-10-14T08:36:14.914Z,5.03
2022-10-14T08:38:44.483Z,5.00
2022-10-14T08:41:24.861Z,4.50
2022-10-14T08:43:56.438Z,6.47
2022-10-14T08:46:26.395Z,4.63
2022-10-14T08:49:05.225Z,5.07
2022-10-14T08:51:34.588Z,4.93
2022-10-14T08:54:08.837Z,4.63
2022-10-14T08:56:38.774Z,4.23
2022-10-14T08:59:09.349Z,4.47
2022-10-14T09:01:41.497Z,3.50
2022-10-14T09:04:13.925Z,4.83
2022-10-14T09:06:43.034Z,4.63
2022-10-14T09:09:16.061Z,4.10
2022-10-14T09:11:45.611Z,4.50
2022-10-14T09:14:17.688Z,5.10
2022-10-14T09:16:50.384Z,4.60
2022-10-14T09:19:28.702Z,4.53
2022-10-14T09:21:57.286Z,3.63
2022-10-14T09:24:28.069Z,4.70
2022-10-14T09:26:59.171Z,4.00
2022-10-14T09:29:28.173Z,4.30
2022-10-14T09:31:58.242Z,5.90
2022-10-14T09:34:29.659Z,5.73
2022-10-14T09:36:59.246Z,4.73
2022-10-14T09:39:29.365Z,4.37
2022-10-14T09:41:59.164Z,6.20
2022-10-14T09:44:27.361Z,3.67
2022-10-14T09:46:57.839Z,3.90
2022-10-14T09:49:42.373Z,3.87
2022-10-14T09:52:21.994Z,3.87
2022-10-14T09:54:56.168Z,3.90
2022-10-14T09:57:25.942Z,3.90
2022-10-14T09:59:57.734Z,4.67
2022-10-14T10:02:32.925Z,3.93
2022-10-14T10:05:12.803Z,3.60
2022-10-14T10:07:41.020Z,3.73
2022-10-14T10:10:20.559Z,4.27
2022-10-14T10:12:48.736Z,3.50
2022-10-14T10:15:21.183Z,3.07
2022-10-14T10:17:49.956Z,3.10
2022-10-14T10:20:28.217Z,3.37
2022-10-14T10:22:57.194Z,3.13
2022-10-14T10:25:28.198Z,2.63
2022-10-14T10:27:58.850Z,2.87
2022-10-14T10:30:28.425Z,2.10
2022-10-14T10:33:00.968Z,1.90
2022-10-14T10:35:30.861Z,2.30
2022-10-14T10:38:05.581Z,2.23
2022-10-14T10:40:37.429Z,1.97
2022-10-14T10:43:24.072Z,1.90
2022-10-14T10:45:58.115Z,1.83
2022-10-14T10:48:29.827Z,1.87
2022-10-14T10:51:00.474Z,1.97
2022-10-14T10:53:34.182Z,1.40
2022-10-14T10:56:10.495Z,1.57
2022-10-14T10:58:44.147Z,1.60
2022-10-14T11:01:18.889Z,1.37
2022-10-14T11:03:55.318Z,1.60
2022-10-14T11:06:39.853Z,1.20
2022-10-14T11:09:29.647Z,1.70
2022-10-14T11:12:07.769Z,1.50
2022-10-14T11:14:49.347Z,1.30
2022-10-14T11:17:22.569Z,1.30
2022-10-14T11:19:53.079Z,1.53
2022-10-14T11:22:29.722Z,1.67
2022-10-14T11:25:04.567Z,1.37
2022-10-14T11:27:38.582Z,1.60
2022-10-14T11:30:15.024Z,1.67
2022-10-14T11:32:48.819Z,1.13
2022-10-14T11:35:23.372Z,1.80
2022-10-14T11:37:58.109Z,1.40
2022-10-14T11:40:28.778Z,1.27
2022-10-14T11:43:08.963Z,1.80
2022-10-14T11:45:42.398Z,1.60
2022-10-14T11:48:16.021Z,2.10
2022-10-14T11:50:47.617Z,1.60
2022-10-14T11:53:18.677Z,2.30
2022-10-14T11:55:49.674Z,1.80
2022-10-14T11:58:21.961Z,2.00
2022-10-14T12:00:53.152Z,2.27
2022-10-14T12:03:25.311Z,2.20
2022-10-14T12:05:59.375Z,1.80
2022-10-14T12:08:33.244Z,1.60
2022-10-14T12:11:06.775Z,2.00
2022-10-14T12:13:38.473Z,1.90
2022-10-14T12:16:10.304Z,1.90
2022-10-14T12:18:38.571Z,1.90
2022-10-14T12:21:10.427Z,2.20
2022-10-14T12:23:40.077Z,1.90
2022-10-14T12:26:12.787Z,2.20
2022-10-14T12:28:43.085Z,2.27
2022-10-14T12:31:25.858Z,2.67
2022-10-14T12:34:13.367Z,2.30
2022-10-14T12:36:42.296Z,2.30
2022-10-14T12:39:23.778Z,2.40
2022-10-14T12:41:54.204Z,1.90
2022-10-14T12:44:24.823Z,2.30
2022-10-14T12:46:54.307Z,2.80
2022-10-14T12:49:27.100Z,2.23
2022-10-14T12:51:56.461Z,2.27
2022-10-14T12:54:25.595Z,2.43
2022-10-14T12:56:58.145Z,2.30
2022-10-14T12:59:30.034Z,2.00
2022-10-14T13:01:59.781Z,2.20
2022-10-14T13:04:28.619Z,2.03
2022-10-14T13:07:35.301Z,2.23
2022-10-14T13:10:23.300Z,1.43
2022-10-14T13:12:51.485Z,2.53
2022-10-14T13:15:38.888Z,2.43
2022-10-14T13:18:25.864Z,2.40
2022-10-14T13:20:54.306Z,2.63
2022-10-14T13:23:29.235Z,2.47
2022-10-14T13:26:00.053Z,2.23
2022-10-14T13:28:31.896Z,2.00
2022-10-14T13:31:05.327Z,2.30
2022-10-14T13:33:37.049Z,2.00
2022-10-14T13:36:10.443Z,2.30
2022-10-14T13:38:40.302Z,2.60
2022-10-14T13:41:14.061Z,2.17
2022-10-14T13:43:43.749Z,2.67
2022-10-14T13:46:15.303Z,2.23
2022-10-14T13:48:45.837Z,2.97
2022-10-14T13:51:36.168Z,2.43
2022-10-14T13:54:11.377Z,2.93
2022-10-14T13:56:39.728Z,3.23
2022-10-14T13:59:43.910Z,2.23
2022-10-14T14:02:17.862Z,2.30
2022-10-14T14:04:48.581Z,2.50
2022-10-14T14:10:09.100Z,1.60
2022-10-14T14:12:37.289Z,2.60
2022-10-14T14:15:05.814Z,2.40
2022-10-14T14:17:36.339Z,2.67
2022-10-14T14:20:11.254Z,3.23
2022-10-14T14:22:43.301Z,2.70
2022-10-14T14:25:33.315Z,2.80
2022-10-14T14:28:01.928Z,2.20
2022-10-14T14:30:32.350Z,2.50
2022-10-14T14:33:02.888Z,3.40
2022-10-14T14:35:31.492Z,2.53
2022-10-14T14:37:59.899Z,2.77
2022-10-14T14:40:29.038Z,2.20
2022-10-14T14:42:59.847Z,2.97
2022-10-14T14:45:30.419Z,2.80
2022-10-14T14:47:59.458Z,3.00
2022-10-14T14:50:31.614Z,2.10
2022-10-14T14:53:03.026Z,2.93
2022-10-14T14:55:39.166Z,2.00
2022-10-14T14:58:08.678Z,2.47
2022-10-14T15:00:36.958Z,2.50
2022-10-14T15:03:05.419Z,2.40
2022-10-14T15:05:35.046Z,2.57
2022-10-14T15:08:03.315Z,2.13
2022-10-14T15:10:32.451Z,2.33
2022-10-14T15:13:02.794Z,2.37
2022-10-14T15:15:32.395Z,2.77
2022-10-14T15:18:13.585Z,3.00
2022-10-14T15:20:43.617Z,3.17
2022-10-14T15:23:45.889Z,3.43
2022-10-14T15:26:23.904Z,2.47
2022-10-14T15:29:07.221Z,2.70
2022-10-14T15:31:35.897Z,2.30
2022-10-14T15:34:04.238Z,2.03
2022-10-14T15:36:34.917Z,2.20
2022-10-14T15:39:03.418Z,3.07
2022-10-14T15:41:31.625Z,2.93
2022-10-14T15:43:59.811Z,2.87
2022-10-14T15:46:45.520Z,3.37
2022-10-14T15:49:16.230Z,3.10
2022-10-14T15:51:45.742Z,2.77
2022-10-14T15:54:14.113Z,2.63
2022-10-14T15:56:42.355Z,3.17
2022-10-14T15:59:16.022Z,3.63
2022-10-14T16:01:45.201Z,3.57
2022-10-14T16:04:19.168Z,3.60
2022-10-14T16:06:48.689Z,3.17
2022-10-14T16:09:17.281Z,3.33
2022-10-14T16:11:45.497Z,3.60
2022-10-14T16:14:13.745Z,3.00
2022-10-14T16:16:43.149Z,3.03
2022-10-14T16:19:11.391Z,3.20
2022-10-14T16:21:40.246Z,3.47
2022-10-14T16:24:17.136Z,3.00
2022-10-14T16:26:45.332Z,3.87
2022-10-14T16:29:13.541Z,4.07
2022-10-14T16:31:42.033Z,4.17
2022-10-14T16:34:11.284Z,4.13
2022-10-14T16:36:40.540Z,3.30
2022-10-14T16:39:10.498Z,4.23
2022-10-14T16:41:38.955Z,4.00
2022-10-14T16:44:07.560Z,5.10
2022-10-14T16:46:53.779Z,4.17
2022-10-14T16:49:21.993Z,4.10
2022-10-14T16:51:50.211Z,4.03
2022-10-14T16:54:19.932Z,3.73
2022-10-14T16:56:53.902Z,3.27
2022-10-14T16:59:22.714Z,3.03
2022-10-14T17:01:51.510Z,3.37
2022-10-14T17:04:20.437Z,3.30
2022-10-14T17:06:49.178Z,3.43
2022-10-14T17:09:18.242Z,3.07
2022-10-14T17:11:49.651Z,4.80
2022-10-14T17:14:19.071Z,5.00
2022-10-14T17:16:48.084Z,3.43
2022-10-14T17:19:16.269Z,3.77
2022-10-14T17:21:44.438Z,4.53
2022-10-14T17:24:12.961Z,2.40
2022-10-14T17:26:41.113Z,3.60
2022-10-14T17:29:10.644Z,4.33
2022-10-14T17:31:38.899Z,3.97
2022-10-14T17:34:08.128Z,4.03
2022-10-14T17:36:36.332Z,3.70
2022-10-14T17:39:04.937Z,4.30
2022-10-14T17:41:33.383Z,4.40
2022-10-14T17:44:02.296Z,4.10
2022-10-14T17:46:33.017Z,3.93
2022-10-14T17:49:03.617Z,3.10
2022-10-14T17:51:32.224Z,3.93
2022-10-14T17:54:01.413Z,4.20
2022-10-14T17:56:30.054Z,4.90
2022-10-14T17:58:59.327Z,3.07
2022-10-14T18:01:37.228Z,3.83
2022-10-14T18:04:13.363Z,3.30
2022-10-14T18:06:41.630Z,4.13
2022-10-14T18:09:10.521Z,4.57
2022-10-14T18:12:06.943Z,3.10
2022-10-14T18:14:29.392Z,4.57
2022-10-14T18:16:59.191Z,3.60
2022-10-14T18:19:28.865Z,4.10
2022-10-14T18:21:57.075Z,4.60
2022-10-14T18:24:25.280Z,4.10
2022-10-14T18:26:53.677Z,4.10
2022-10-14T18:29:22.030Z,4.53
2022-10-14T18:34:25.306Z,4.53
2022-10-14T18:36:54.922Z,4.40
2022-10-14T18:39:23.349Z,4.43
2022-10-14T18:41:51.491Z,4.50
2022-10-14T18:44:19.950Z,4.00
2022-10-14T18:46:48.493Z,4.20
2022-10-14T18:49:16.755Z,4.63
2022-10-14T18:51:44.977Z,4.77
2022-10-14T18:54:15.500Z,4.60
2022-10-14T18:56:44.510Z,4.00
2022-10-14T18:59:13.938Z,3.80
2022-10-14T19:01:43.087Z,4.73
2022-10-14T19:04:13.554Z,4.50
2022-10-14T19:06:44.799Z,3.97
2022-10-14T19:09:13.638Z,4.30
2022-10-14T19:11:44.564Z,4.80
2022-10-14T19:14:14.269Z,4.70
2022-10-14T19:16:42.813Z,4.37
2022-10-14T19:19:14.311Z,3.73
2022-10-14T19:21:43.242Z,3.60
2022-10-14T19:24:12.189Z,3.97
2022-10-14T19:26:41.281Z,3.00
2022-10-14T19:29:11.793Z,3.37
2022-10-14T19:31:40.807Z,3.37
2022-10-14T19:34:10.060Z,3.30
2022-10-14T19:36:40.228Z,2.77
2022-10-14T19:39:09.113Z,2.60
2022-10-14T19:41:42.904Z,1.90
2022-10-14T19:44:13.731Z,3.03
2022-10-14T19:46:42.265Z,1.73
2022-10-14T19:49:12.399Z,1.87
2022-10-14T19:51:40.749Z,2.17
2022-10-14T19:54:09.060Z,2.13
2022-10-14T19:56:37.505Z,2.00
2022-10-14T19:59:05.768Z,2.03
2022-10-14T20:01:35.451Z,1.57
2022-10-14T20:04:03.884Z,1.70
2022-10-14T20:06:33.881Z,2.40
2022-10-14T20:09:02.291Z,2.83
2022-10-14T20:11:30.577Z,1.93
2022-10-14T20:13:59.163Z,2.40
2022-10-14T20:16:28.053Z,2.10
2022-10-14T20:18:57.956Z,1.80
2022-10-14T20:21:26.457Z,2.20
2022-10-14T20:23:54.877Z,1.93
2022-10-14T20:26:23.431Z,2.20
2022-10-14T20:28:52.110Z,2.10
2022-10-14T20:31:22.034Z,2.50
2022-10-14T20:33:50.613Z,2.30
2022-10-14T20:36:20.661Z,2.83
2022-10-14T20:38:49.360Z,2.20
2022-10-14T20:41:18.569Z,2.80
2022-10-14T20:43:47.676Z,2.00
2022-10-14T20:46:15.988Z,2.67
2022-10-14T20:48:44.440Z,3.60
2022-10-14T20:51:13.608Z,2.90
2022-10-14T20:53:43.297Z,2.87
2022-10-14T20:56:12.582Z,2.40
2022-10-14T20:58:40.829Z,3.20
2022-10-14T21:01:09.452Z,3.37
2022-10-14T21:03:37.974Z,3.50
2022-10-14T21:06:07.402Z,2.73
2022-10-14T21:08:35.818Z,3.47
2022-10-14T21:11:09.241Z,2.37
2022-10-14T21:13:41.118Z,2.93
2022-10-14T21:16:21.006Z,2.90
2022-10-14T21:18:53.575Z,2.63
2022-10-14T21:21:25.718Z,2.40
2022-10-14T21:23:53.936Z,3.27
2022-10-14T21:26:23.465Z,2.20
2022-10-14T21:28:51.746Z,2.83
2022-10-14T21:31:24.488Z,2.83
2022-10-14T21:33:59.911Z,2.33
2022-10-14T21:36:30.876Z,3.13
2022-10-14T21:39:02.219Z,3.10
2022-10-14T21:41:31.767Z,3.30
2022-10-14T21:43:59.954Z,3.03
2022-10-14T21:46:28.485Z,2.50
2022-10-14T21:48:57.726Z,2.30
2022-10-14T21:51:27.420Z,3.27
2022-10-14T21:53:55.767Z,2.70
2022-10-14T21:56:23.984Z,2.80
2022-10-14T21:58:53.552Z,3.53
2022-10-14T22:01:22.912Z,2.20
2022-10-14T22:03:54.379Z,3.10
2022-10-14T22:06:22.677Z,3.03
2022-10-14T22:08:51.897Z,3.70
2022-10-14T22:11:21.886Z,3.67
2022-10-14T22:13:50.428Z,2.80
2022-10-14T22:16:20.088Z,3.50
2022-10-14T22:18:50.334Z,3.10
2022-10-14T22:21:19.567Z,4.00
2022-10-14T22:23:47.849Z,3.90
2022-10-14T22:26:17.278Z,3.40
2022-10-14T22:28:45.585Z,3.77
2022-10-14T22:31:15.146Z,2.83
2022-10-14T22:33:44.917Z,3.30
2022-10-14T22:36:16.134Z,3.47
2022-10-14T22:38:46.958Z,3.47
2022-10-14T22:41:16.251Z,3.30
2022-10-14T22:43:47.223Z,2.90
2022-10-14T22:46:16.461Z,3.50
2022-10-14T22:48:48.933Z,3.33
2022-10-14T22:51:19.023Z,3.23
2022-10-14T22:53:47.845Z,3.30
2022-10-14T22:56:17.010Z,3.27
2022-10-14T22:58:45.185Z,3.30
2022-10-14T23:01:14.217Z,4.10
2022-10-14T23:03:42.571Z,4.10
2022-10-14T23:06:13.833Z,3.53
2022-10-14T23:08:42.565Z,3.53
2022-10-14T23:11:12.058Z,3.90
2022-10-14T23:13:40.386Z,3.67
2022-10-14T23:16:09.289Z,4.63
2022-10-14T23:18:38.934Z,4.23
2022-10-14T23:21:11.798Z,4.13
2022-10-14T23:23:44.036Z,3.70
2022-10-14T23:26:12.531Z,4.27
2022-10-14T23:28:41.094Z,3.40
2022-10-14T23:31:10.089Z,4.43
2022-10-14T23:33:38.393Z,4.00
2022-10-14T23:36:06.874Z,5.30
2022-10-14T23:38:35.369Z,4.23
2022-10-14T23:41:05.642Z,3.60
2022-10-14T23:43:33.998Z,3.57
2022-10-14T23:46:02.303Z,3.37
2022-10-14T23:48:30.467Z,4.30
2022-10-14T23:50:59.210Z,5.00
2022-10-14T23:53:27.483Z,3.67
2022-10-14T23:55:55.788Z,3.77
2022-10-14T23:58:28.348Z,4.57
